Time;durP1;ratioP1;P1;durP2;ratioP2;P2;SDS_P1;SDS_P2;PMS_P1;PMS_P2;Temp;Humidity;BMP_temperature;BMP_pressure;BME280_temperature;BME280_humidity;BME280_pressure;Samples;Min_cycle;Max_cycle;Signal;HPM_P1;HPM_P2
2023/04/09 00:01:16;;;;;;;1.92;1.20;;;;;;;;;;5052693;28;20074;-69
2023/04/09 00:03:42;;;;;;;3.03;1.40;;;;;;;;;;5052758;28;20023;-68
2023/04/09 00:06:11;;;;;;;2.38;1.60;;;;;;;;;;5052418;28;20028;-68
2023/04/09 00:08:37;;;;;;;9.63;1.60;;;;;;;;;;5052459;28;20041;-68
2023/04/09 00:11:04;;;;;;;1.30;1.20;;;;;;;;;;5052385;28;20470;-68
2023/04/09 00:13:30;;;;;;;1.55;1.27;;;;;;;;;;5051564;28;20047;-68
2023/04/09 00:15:57;;;;;;;2.33;1.42;;;;;;;;;;5052267;28;20413;-68
2023/04/09 00:18:23;;;;;;;3.00;1.83;;;;;;;;;;5084505;28;20037;-68
2023/04/09 00:20:50;;;;;;;1.92;1.15;;;;;;;;;;5052453;28;20017;-68
2023/04/09 00:23:16;;;;;;;1.48;1.30;;;;;;;;;;5051863;28;20013;-68
2023/04/09 00:25:42;;;;;;;3.30;1.55;;;;;;;;;;5052444;28;20031;-68
2023/04/09 00:28:09;;;;;;;4.10;1.75;;;;;;;;;;5052278;28;20041;-68
2023/04/09 00:30:35;;;;;;;2.42;1.55;;;;;;;;;;5051400;28;20051;-68
2023/04/09 00:33:01;;;;;;;6.40;1.75;;;;;;;;;;5052366;28;20043;-68
2023/04/09 00:35:28;;;;;;;2.17;1.52;;;;;;;;;;5052589;28;20383;-68
2023/04/09 00:37:54;;;;;;;1.88;1.40;;;;;;;;;;5052186;28;20025;-68
2023/04/09 00:40:21;;;;;;;1.45;1.35;;;;;;;;;;5051822;28;20031;-68
2023/04/09 00:42:47;;;;;;;2.22;1.40;;;;;;;;;;5051185;28;20090;-68
2023/04/09 00:45:13;;;;;;;1.73;1.42;;;;;;;;;;5052033;28;20024;-69
2023/04/09 00:47:41;;;;;;;4.28;1.67;;;;;;;;;;5052460;28;20486;-68
2023/04/09 00:50:08;;;;;;;4.03;1.50;;;;;;;;;;5051874;28;20037;-68
2023/04/09 00:52:34;;;;;;;2.08;1.30;;;;;;;;;;5051742;28;20021;-68
2023/04/09 00:55:01;;;;;;;3.00;1.60;;;;;;;;;;5052150;28;20056;-68
2023/04/09 00:57:27;;;;;;;1.50;1.40;;;;;;;;;;5052034;28;20377;-68
2023/04/09 00:59:54;;;;;;;1.88;1.20;;;;;;;;;;5051733;28;20029;-68
2023/04/09 01:02:20;;;;;;;2.28;1.55;;;;;;;;;;5051890;28;20013;-69
2023/04/09 01:04:47;;;;;;;2.78;1.60;;;;;;;;;;5051879;28;20055;-69
2023/04/09 01:07:19;;;;;;;1.58;1.48;;;;;;;;;;5051873;28;20029;-69
2023/04/09 01:10:04;;;;;;;2.08;1.42;;;;;;;;;;5052176;28;20035;-69
2023/04/09 01:12:50;;;;;;;2.60;1.55;;;;;;;;;;5052031;28;20059;-68
2023/04/09 01:15:18;;;;;;;3.88;2.00;;;;;;;;;;5051708;28;20024;-68
2023/04/09 01:17:53;;;;;;;2.63;1.83;;;;;;;;;;5052184;28;20035;-68
2023/04/09 01:20:30;;;;;;;3.83;2.22;;;;;;;;;;5051524;28;20405;-69
2023/04/09 01:22:56;;;;;;;2.08;1.60;;;;;;;;;;5051844;28;20029;-68
2023/04/09 01:25:26;;;;;;;2.33;1.40;;;;;;;;;;5051787;28;20033;-69
2023/04/09 01:28:11;;;;;;;3.42;1.60;;;;;;;;;;5051449;28;20029;-68
2023/04/09 01:30:38;;;;;;;2.95;1.55;;;;;;;;;;5051392;28;20048;-68
2023/04/09 01:33:05;;;;;;;2.80;1.80;;;;;;;;;;5051827;28;20083;-68
2023/04/09 01:35:32;;;;;;;2.45;1.50;;;;;;;;;;5051636;28;20024;-68
2023/04/09 01:37:58;;;;;;;2.70;1.50;;;;;;;;;;5051526;28;20040;-68
2023/04/09 01:40:24;;;;;;;3.33;1.95;;;;;;;;;;5050058;28;20043;-69
2023/04/09 01:42:51;;;;;;;3.35;1.50;;;;;;;;;;5052704;28;20501;-68
2023/04/09 01:45:18;;;;;;;1.45;1.27;;;;;;;;;;5055239;28;20040;-68
2023/04/09 01:47:44;;;;;;;2.28;1.85;;;;;;;;;;5055066;28;20371;-68
2023/04/09 01:50:11;;;;;;;3.67;2.08;;;;;;;;;;5054882;28;20158;-69
2023/04/09 01:52:37;;;;;;;3.13;1.80;;;;;;;;;;5055122;28;20519;-69
2023/04/09 01:55:04;;;;;;;4.07;1.67;;;;;;;;;;5055171;28;20017;-69
2023/04/09 01:57:30;;;;;;;2.83;1.80;;;;;;;;;;5055035;28;20024;-68
2023/04/09 01:59:57;;;;;;;2.05;1.55;;;;;;;;;;5055057;28;20017;-68
2023/04/09 02:02:28;;;;;;;3.08;1.88;;;;;;;;;;5055065;28;20055;-68
2023/04/09 02:04:57;;;;;;;2.13;1.70;;;;;;;;;;5054886;28;20029;-68
2023/04/09 02:07:29;;;;;;;2.92;1.70;;;;;;;;;;5055200;28;20037;-68
2023/04/09 02:09:56;;;;;;;2.03;1.67;;;;;;;;;;5054855;28;20029;-68
2023/04/09 02:12:23;;;;;;;3.28;1.67;;;;;;;;;;5054770;28;20029;-68
2023/04/09 02:14:51;;;;;;;2.03;1.80;;;;;;;;;;5055027;28;20029;-68
2023/04/09 02:17:17;;;;;;;2.05;1.60;;;;;;;;;;5054264;28;20033;-69
2023/04/09 02:19:45;;;;;;;2.45;1.80;;;;;;;;;;5054797;28;20025;-68
2023/04/09 02:22:12;;;;;;;4.55;1.77;;;;;;;;;;5055207;28;20025;-68
2023/04/09 02:24:39;;;;;;;4.22;1.60;;;;;;;;;;5054448;28;20033;-68
2023/04/09 02:27:06;;;;;;;2.70;1.83;;;;;;;;;;5055082;28;20029;-68
2023/04/09 02:29:32;;;;;;;3.42;1.70;;;;;;;;;;5054463;28;20512;-69
2023/04/09 02:31:59;;;;;;;2.90;1.80;;;;;;;;;;5054197;28;20025;-68
2023/04/09 02:34:25;;;;;;;3.78;2.05;;;;;;;;;;5054537;28;20470;-68
2023/04/09 02:36:51;;;;;;;2.78;1.70;;;;;;;;;;5054345;28;20029;-68
2023/04/09 02:39:18;;;;;;;2.67;1.65;;;;;;;;;;5054650;28;20398;-68
2023/04/09 02:41:44;;;;;;;2.55;1.70;;;;;;;;;;5054425;28;20478;-68
2023/04/09 02:44:10;;;;;;;3.72;1.92;;;;;;;;;;5053956;28;20023;-68
2023/04/09 02:46:38;;;;;;;5.00;1.83;;;;;;;;;;5053890;28;20389;-68
2023/04/09 02:49:04;;;;;;;1.90;1.70;;;;;;;;;;5053833;28;20033;-68
2023/04/09 02:51:30;;;;;;;2.50;2.00;;;;;;;;;;5054108;28;20028;-68
2023/04/09 02:53:56;;;;;;;3.28;2.22;;;;;;;;;;5053746;28;20029;-68
2023/04/09 02:56:23;;;;;;;2.47;2.05;;;;;;;;;;5054313;28;20028;-68
2023/04/09 02:58:52;;;;;;;2.63;1.92;;;;;;;;;;5053902;28;20036;-68
2023/04/09 03:01:21;;;;;;;2.88;1.95;;;;;;;;;;5053529;28;20048;-68
2023/04/09 03:03:48;;;;;;;2.53;1.83;;;;;;;;;;5053787;28;20516;-67
2023/04/09 03:06:14;;;;;;;2.78;1.83;;;;;;;;;;5053535;28;20021;-69
2023/04/09 03:08:41;;;;;;;1.70;1.55;;;;;;;;;;5053821;28;20402;-68
2023/04/09 03:11:07;;;;;;;3.35;2.28;;;;;;;;;;5054096;28;20017;-68
2023/04/09 03:13:33;;;;;;;3.10;1.75;;;;;;;;;;5053993;28;20029;-68
2023/04/09 03:15:59;;;;;;;3.95;2.00;;;;;;;;;;5052955;28;20035;-69
2023/04/09 03:18:26;;;;;;;3.00;1.75;;;;;;;;;;5053432;28;20025;-68
2023/04/09 03:20:52;;;;;;;3.10;1.90;;;;;;;;;;5053415;28;20035;-68
2023/04/09 03:23:18;;;;;;;2.13;1.92;;;;;;;;;;5053544;28;20525;-68
2023/04/09 03:25:45;;;;;;;2.78;1.98;;;;;;;;;;5052126;28;20029;-68
2023/04/09 03:28:11;;;;;;;4.15;1.80;;;;;;;;;;5053451;28;20440;-68
2023/04/09 03:30:37;;;;;;;4.32;1.92;;;;;;;;;;5053071;28;20425;-68
2023/04/09 03:33:04;;;;;;;3.70;2.00;;;;;;;;;;5053402;28;20041;-68
2023/04/09 03:35:30;;;;;;;4.18;2.60;;;;;;;;;;5053316;28;20393;-67
2023/04/09 03:37:56;;;;;;;4.55;3.05;;;;;;;;;;5053087;28;20025;-70
2023/04/09 03:40:23;;;;;;;6.93;4.35;;;;;;;;;;5052803;28;20027;-70
2023/04/09 03:42:49;;;;;;;6.13;4.20;;;;;;;;;;5053247;28;20520;-69
2023/04/09 03:45:15;;;;;;;6.30;3.70;;;;;;;;;;5052616;28;20027;-69
2023/04/09 03:47:42;;;;;;;5.93;3.42;;;;;;;;;;5052826;28;20017;-69
2023/04/09 03:50:08;;;;;;;3.50;2.83;;;;;;;;;;5052562;28;20031;-69
2023/04/09 03:52:34;;;;;;;4.38;2.83;;;;;;;;;;5052693;28;20470;-68
2023/04/09 03:55:03;;;;;;;3.78;2.35;;;;;;;;;;5052990;28;20558;-69
2023/04/09 03:57:29;;;;;;;2.90;2.40;;;;;;;;;;5052777;28;20013;-69
2023/04/09 03:59:56;;;;;;;4.03;2.60;;;;;;;;;;5052522;28;20029;-69
2023/04/09 04:02:22;;;;;;;3.78;2.67;;;;;;;;;;5052734;28;20525;-69
2023/04/09 04:04:48;;;;;;;4.63;2.88;;;;;;;;;;5052432;28;20041;-69
2023/04/09 04:07:15;;;;;;;4.95;2.78;;;;;;;;;;5052484;28;20021;-69
2023/04/09 04:09:41;;;;;;;4.43;2.42;;;;;;;;;;5052454;28;20090;-69
2023/04/09 04:12:07;;;;;;;2.92;2.28;;;;;;;;;;5052676;28;20035;-69
2023/04/09 04:14:34;;;;;;;4.40;2.30;;;;;;;;;;5051925;28;20114;-69
2023/04/09 04:17:00;;;;;;;2.90;2.10;;;;;;;;;;5052506;28;20017;-69
2023/04/09 04:19:26;;;;;;;3.45;2.10;;;;;;;;;;5052782;28;20036;-69
2023/04/09 04:21:52;;;;;;;2.45;1.85;;;;;;;;;;5051918;28;20312;-69
2023/04/09 04:24:19;;;;;;;2.53;2.03;;;;;;;;;;5052409;28;20017;-69
2023/04/09 04:26:45;;;;;;;4.03;2.20;;;;;;;;;;5052405;28;20432;-69
2023/04/09 04:29:11;;;;;;;2.35;2.00;;;;;;;;;;5051740;28;20045;-69
2023/04/09 04:31:38;;;;;;;3.45;2.38;;;;;;;;;;5052036;28;20505;-69
2023/04/09 04:34:04;;;;;;;3.83;2.55;;;;;;;;;;5052174;28;20097;-69
2023/04/09 04:36:30;;;;;;;4.32;2.00;;;;;;;;;;5051927;28;20017;-69
2023/04/09 04:38:57;;;;;;;2.67;1.92;;;;;;;;;;5052429;28;20017;-69
2023/04/09 04:41:23;;;;;;;3.30;2.08;;;;;;;;;;5052131;28;20389;-69
2023/04/09 04:43:49;;;;;;;2.70;1.80;;;;;;;;;;5052334;28;20245;-69
2023/04/09 04:46:16;;;;;;;2.58;2.35;;;;;;;;;;5051781;28;20425;-69
2023/04/09 04:48:42;;;;;;;3.25;2.22;;;;;;;;;;5052000;28;20033;-69
2023/04/09 04:51:09;;;;;;;4.68;2.33;;;;;;;;;;5052143;28;20017;-69
2023/04/09 04:53:35;;;;;;;3.22;1.98;;;;;;;;;;5052428;28;20029;-69
2023/04/09 04:56:01;;;;;;;3.50;2.08;;;;;;;;;;5051775;28;20496;-69
2023/04/09 04:58:29;;;;;;;3.40;2.25;;;;;;;;;;5052098;28;20029;-69
2023/04/09 05:00:55;;;;;;;2.70;2.08;;;;;;;;;;5051592;28;20013;-69
2023/04/09 05:03:22;;;;;;;3.08;2.20;;;;;;;;;;5051702;28;20033;-69
2023/04/09 05:05:48;;;;;;;3.95;2.20;;;;;;;;;;5051769;28;20025;-69
2023/04/09 05:08:14;;;;;;;4.57;2.28;;;;;;;;;;5051837;28;20055;-69
2023/04/09 05:10:45;;;;;;;3.63;2.20;;;;;;;;;;5051594;28;20029;-69
2023/04/09 05:13:11;;;;;;;;;;;;;;;;;;5051905;28;20364;-70
2023/04/09 05:15:41;;;;;;;6.43;2.90;;;;;;;;;;5051596;28;20291;-69
2023/04/09 05:18:07;;;;;;;6.80;2.88;;;;;;;;;;5055367;28;20021;-69
2023/04/09 05:20:34;;;;;;;4.57;2.72;;;;;;;;;;5055575;28;20091;-69
2023/04/09 05:23:00;;;;;;;4.97;2.30;;;;;;;;;;5055623;28;20021;-69
2023/04/09 05:25:27;;;;;;;5.07;2.50;;;;;;;;;;5055649;28;20032;-69
2023/04/09 05:27:53;;;;;;;2.72;2.05;;;;;;;;;;5054150;28;20037;-70
2023/04/09 05:30:20;;;;;;;4.40;2.33;;;;;;;;;;5055209;28;20561;-69
2023/04/09 05:32:46;;;;;;;4.55;2.40;;;;;;;;;;5055442;28;20032;-69
2023/04/09 05:35:12;;;;;;;3.92;2.42;;;;;;;;;;5055777;28;20025;-69
2023/04/09 05:37:39;;;;;;;3.45;2.80;;;;;;;;;;5055251;28;20066;-69
2023/04/09 05:40:05;;;;;;;3.67;2.38;;;;;;;;;;5055310;28;20029;-69
2023/04/09 05:42:32;;;;;;;3.35;2.15;;;;;;;;;;5053690;28;20062;-69
2023/04/09 05:44:58;;;;;;;4.70;2.80;;;;;;;;;;5055203;28;20029;-69
2023/04/09 05:47:24;;;;;;;4.15;2.63;;;;;;;;;;5055551;28;20033;-69
2023/04/09 05:49:51;;;;;;;5.57;3.10;;;;;;;;;;5054926;28;20379;-69
2023/04/09 05:52:17;;;;;;;5.22;3.30;;;;;;;;;;5055757;28;20027;-69
2023/04/09 05:54:43;;;;;;;5.13;2.88;;;;;;;;;;5054866;28;20035;-69
2023/04/09 05:57:10;;;;;;;4.22;2.75;;;;;;;;;;5054966;28;20021;-69
2023/04/09 05:59:36;;;;;;;3.05;2.30;;;;;;;;;;5055128;28;20435;-69
2023/04/09 06:02:02;;;;;;;4.70;2.60;;;;;;;;;;5054999;28;20024;-69
2023/04/09 06:04:29;;;;;;;2.67;2.22;;;;;;;;;;5055195;28;20051;-69
2023/04/09 06:06:58;;;;;;;2.45;2.00;;;;;;;;;;5054860;28;20028;-70
2023/04/09 06:09:26;;;;;;;3.13;2.15;;;;;;;;;;5054577;28;20115;-69
2023/04/09 06:11:53;;;;;;;2.92;1.98;;;;;;;;;;5054887;28;20033;-69
2023/04/09 06:14:19;;;;;;;4.90;2.10;;;;;;;;;;5054630;28;20025;-69
2023/04/09 06:16:45;;;;;;;2.83;2.08;;;;;;;;;;5054457;28;20031;-69
2023/04/09 06:19:12;;;;;;;3.95;2.60;;;;;;;;;;5054370;28;20500;-69
2023/04/09 06:21:39;;;;;;;2.40;2.20;;;;;;;;;;5054528;28;20028;-69
2023/04/09 06:24:06;;;;;;;4.28;2.80;;;;;;;;;;5054520;28;20027;-69
2023/04/09 06:26:32;;;;;;;4.70;3.03;;;;;;;;;;5054367;28;20017;-69
2023/04/09 06:28:59;;;;;;;3.28;2.20;;;;;;;;;;5052249;28;20488;-69
2023/04/09 06:31:26;;;;;;;3.72;2.38;;;;;;;;;;5054279;28;20041;-69
2023/04/09 06:33:52;;;;;;;3.22;2.00;;;;;;;;;;5054356;28;20039;-69
2023/04/09 06:36:20;;;;;;;4.43;2.17;;;;;;;;;;5054474;28;20504;-69
2023/04/09 06:38:46;;;;;;;2.83;2.08;;;;;;;;;;5054137;28;20021;-69
2023/04/09 06:41:13;;;;;;;3.10;2.13;;;;;;;;;;5054113;28;20029;-70
2023/04/09 06:43:40;;;;;;;3.38;2.05;;;;;;;;;;5054322;28;20025;-69
2023/04/09 06:46:06;;;;;;;3.28;2.22;;;;;;;;;;5054559;28;20025;-69
2023/04/09 06:48:33;;;;;;;3.88;2.30;;;;;;;;;;5053829;28;20047;-70
2023/04/09 06:50:59;;;;;;;2.67;2.30;;;;;;;;;;5054093;28;20031;-69
2023/04/09 06:53:26;;;;;;;4.50;2.40;;;;;;;;;;5053820;28;20082;-69
2023/04/09 06:55:52;;;;;;;4.03;2.20;;;;;;;;;;5053925;28;20505;-69
2023/04/09 06:58:19;;;;;;;6.32;2.80;;;;;;;;;;5053765;28;20031;-70
2023/04/09 07:00:46;;;;;;;6.65;2.30;;;;;;;;;;5053516;28;20017;-69
2023/04/09 07:03:12;;;;;;;3.42;2.25;;;;;;;;;;5053919;28;20033;-69
2023/04/09 07:05:39;;;;;;;4.55;2.35;;;;;;;;;;5053891;28;20439;-69
2023/04/09 07:08:06;;;;;;;3.78;2.08;;;;;;;;;;5053544;28;20033;-70
2023/04/09 07:10:32;;;;;;;3.38;2.00;;;;;;;;;;5053535;28;20029;-69
2023/04/09 07:12:58;;;;;;;3.25;2.15;;;;;;;;;;5053507;28;20051;-70
2023/04/09 07:15:25;;;;;;;3.35;2.00;;;;;;;;;;5053476;28;20021;-69
2023/04/09 07:17:51;;;;;;;2.83;1.83;;;;;;;;;;5053390;28;20035;-69
2023/04/09 07:20:17;;;;;;;2.85;1.88;;;;;;;;;;5053391;28;20086;-69
2023/04/09 07:22:44;;;;;;;2.50;1.75;;;;;;;;;;5053374;28;20035;-67
2023/04/09 07:25:10;;;;;;;2.65;1.80;;;;;;;;;;5053296;28;20021;-69
2023/04/09 07:27:36;;;;;;;3.33;2.13;;;;;;;;;;5053398;28;20097;-69
2023/04/09 07:30:03;;;;;;;5.03;1.67;;;;;;;;;;5052831;28;20408;-69
2023/04/09 07:32:29;;;;;;;2.50;1.75;;;;;;;;;;5053281;28;20027;-69
2023/04/09 07:34:56;;;;;;;3.35;2.30;;;;;;;;;;5053419;28;20031;-69
2023/04/09 07:37:22;;;;;;;3.70;1.92;;;;;;;;;;5052741;28;20028;-69
2023/04/09 07:39:50;;;;;;;2.90;1.90;;;;;;;;;;5053150;28;20035;-69
2023/04/09 07:42:16;;;;;;;1.63;1.50;;;;;;;;;;5052941;28;20017;-69
2023/04/09 07:44:42;;;;;;;3.65;2.10;;;;;;;;;;5052771;28;20032;-69
2023/04/09 07:47:10;;;;;;;2.92;1.90;;;;;;;;;;5052905;28;20440;-69
2023/04/09 07:49:39;;;;;;;4.35;1.75;;;;;;;;;;5052782;28;20047;-69
2023/04/09 07:52:06;;;;;;;3.33;2.25;;;;;;;;;;5052558;28;20466;-69
2023/04/09 07:54:33;;;;;;;3.22;2.15;;;;;;;;;;5052651;28;20031;-69
2023/04/09 07:57:03;;;;;;;3.22;2.03;;;;;;;;;;5052546;28;20033;-69
2023/04/09 07:59:30;;;;;;;2.83;1.92;;;;;;;;;;5052448;28;20066;-69
2023/04/09 08:01:56;;;;;;;2.00;1.80;;;;;;;;;;5052790;28;20025;-69
2023/04/09 08:04:23;;;;;;;4.25;1.90;;;;;;;;;;5052705;28;20033;-69
2023/04/09 08:06:49;;;;;;;2.50;2.15;;;;;;;;;;5051222;28;20043;-69
2023/04/09 08:09:16;;;;;;;5.10;2.58;;;;;;;;;;5052425;28;20082;-69
2023/04/09 08:11:44;;;;;;;2.80;2.15;;;;;;;;;;5052773;28;20021;-69
2023/04/09 08:14:14;;;;;;;2.97;2.10;;;;;;;;;;5052465;28;20013;-69
2023/04/09 08:16:42;;;;;;;2.73;2.00;;;;;;;;;;5052188;28;20035;-69
2023/04/09 08:19:08;;;;;;;2.72;1.88;;;;;;;;;;5052294;28;20021;-68
2023/04/09 08:21:39;;;;;;;3.45;2.40;;;;;;;;;;5052093;28;20037;-69
2023/04/09 08:24:06;;;;;;;2.67;2.30;;;;;;;;;;5052370;28;20025;-69
2023/04/09 08:26:32;;;;;;;4.15;2.47;;;;;;;;;;5052262;28;20783;-69
2023/04/09 08:28:58;;;;;;;4.13;2.67;;;;;;;;;;5051992;28;20043;-69
2023/04/09 08:31:25;;;;;;;6.05;2.88;;;;;;;;;;5052189;28;20405;-69
2023/04/09 08:33:52;;;;;;;4.50;2.72;;;;;;;;;;5052293;28;20512;-69
2023/04/09 08:36:19;;;;;;;6.10;2.65;;;;;;;;;;5052204;28;20035;-69
2023/04/09 08:38:46;;;;;;;4.18;2.08;;;;;;;;;;5052518;28;20062;-69
2023/04/09 08:41:23;;;;;;;2.47;2.05;;;;;;;;;;5051861;28;20025;-69
2023/04/09 08:43:50;;;;;;;2.92;2.13;;;;;;;;;;5052065;28;20043;-69
2023/04/09 08:46:17;;;;;;;3.05;2.40;;;;;;;;;;5051896;28;20475;-69
2023/04/09 08:48:45;;;;;;;3.45;2.17;;;;;;;;;;5052616;28;20044;-69
2023/04/09 08:51:15;;;;;;;3.42;2.40;;;;;;;;;;5054210;28;20021;-69
2023/04/09 08:53:51;;;;;;;2.85;2.20;;;;;;;;;;5059785;28;20024;-69
2023/04/09 08:56:17;;;;;;;2.35;2.05;;;;;;;;;;5059031;28;20379;-69
2023/04/09 08:58:44;;;;;;;2.58;2.05;;;;;;;;;;5058934;28;20035;-69
2023/04/09 09:01:21;;;;;;;2.63;2.10;;;;;;;;;;5058672;28;20017;-69
2023/04/09 09:03:59;;;;;;;2.97;2.33;;;;;;;;;;5058738;28;20033;-70
2023/04/09 09:06:28;;;;;;;2.65;2.00;;;;;;;;;;5058812;28;20028;-69
2023/04/09 09:09:05;;;;;;;3.47;2.35;;;;;;;;;;5058743;28;20047;-69
2023/04/09 09:11:32;;;;;;;3.92;2.55;;;;;;;;;;5059019;28;20477;-69
2023/04/09 09:14:17;;;;;;;4.20;2.45;;;;;;;;;;5058455;28;20047;-67
2023/04/09 09:16:56;;;;;;;8.20;2.25;;;;;;;;;;5058522;28;20401;-69
2023/04/09 09:19:25;;;;;;;3.35;2.60;;;;;;;;;;5058284;28;20405;-69
2023/04/09 09:22:18;;;;;;;5.60;2.90;;;;;;;;;;5058263;28;20047;-69
2023/04/09 09:24:47;;;;;;;3.95;2.35;;;;;;;;;;5057294;28;20043;-69
2023/04/09 09:27:31;;;;;;;4.32;2.30;;;;;;;;;;5058229;28;20025;-69
2023/04/09 09:29:57;;;;;;;2.85;2.40;;;;;;;;;;5058575;28;20090;-67
2023/04/09 09:32:24;;;;;;;4.28;2.45;;;;;;;;;;5058263;28;20017;-68
2023/04/09 09:35:10;;;;;;;2.88;2.10;;;;;;;;;;5058434;28;20035;-69
2023/04/09 09:37:36;;;;;;;5.50;2.30;;;;;;;;;;5058450;28;20017;-69
2023/04/09 09:40:03;;;;;;;2.70;2.33;;;;;;;;;;5058345;28;20359;-69
2023/04/09 09:42:30;;;;;;;3.70;2.38;;;;;;;;;;5058637;28;20031;-69
2023/04/09 09:44:58;;;;;;;3.75;2.10;;;;;;;;;;5058404;28;20049;-69
2023/04/09 09:47:26;;;;;;;2.15;1.70;;;;;;;;;;5058238;28;20036;-69
2023/04/09 09:49:53;;;;;;;3.42;2.17;;;;;;;;;;5058145;28;20041;-69
2023/04/09 09:52:29;;;;;;;1.77;1.63;;;;;;;;;;5058435;28;20019;-69
2023/04/09 09:54:57;;;;;;;2.70;1.80;;;;;;;;;;5058277;28;20021;-67
2023/04/09 09:57:25;;;;;;;4.70;2.25;;;;;;;;;;5058542;28;20017;-67
2023/04/09 09:59:54;;;;;;;2.28;1.70;;;;;;;;;;5057888;28;20025;-69
2023/04/09 10:02:22;;;;;;;2.30;2.10;;;;;;;;;;5057317;28;20030;-68
2023/04/09 10:04:51;;;;;;;3.53;2.60;;;;;;;;;;5054154;28;20393;-69
2023/04/09 10:07:19;;;;;;;3.00;2.65;;;;;;;;;;5055209;28;20040;-69
2023/04/09 10:09:48;;;;;;;7.50;2.50;;;;;;;;;;5054622;28;20029;-69
2023/04/09 10:12:15;;;;;;;2.92;2.63;;;;;;;;;;5054652;28;20029;-69
2023/04/09 10:14:42;;;;;;;3.65;2.72;;;;;;;;;;5054640;28;20033;-69
2023/04/09 10:17:08;;;;;;;2.90;2.47;;;;;;;;;;5054713;28;20017;-69
2023/04/09 10:19:41;;;;;;;3.15;2.20;;;;;;;;;;5055271;28;20028;-69
2023/04/09 10:22:11;;;;;;;2.50;2.05;;;;;;;;;;5054364;28;20033;-68
2023/04/09 10:24:38;;;;;;;5.30;3.60;;;;;;;;;;5054949;28;20098;-69
2023/04/09 10:27:14;;;;;;;4.53;3.08;;;;;;;;;;5054429;28;20013;-68
2023/04/09 10:29:45;;;;;;;5.45;2.90;;;;;;;;;;5054771;28;20051;-69
2023/04/09 10:32:12;;;;;;;3.75;2.72;;;;;;;;;;5054787;28;20017;-68
2023/04/09 10:34:39;;;;;;;3.42;2.53;;;;;;;;;;5054731;28;20039;-69
2023/04/09 10:37:10;;;;;;;4.93;3.15;;;;;;;;;;5053451;28;20024;-69
2023/04/09 10:39:41;;;;;;;4.65;2.70;;;;;;;;;;5053827;28;20025;-69
2023/04/09 10:42:11;;;;;;;3.67;2.83;;;;;;;;;;5054629;28;20025;-69
2023/04/09 10:44:40;;;;;;;3.90;2.75;;;;;;;;;;5054428;28;20371;-69
2023/04/09 10:47:08;;;;;;;5.57;3.05;;;;;;;;;;5054420;28;20017;-69
2023/04/09 10:49:38;;;;;;;2.95;2.65;;;;;;;;;;5054067;28;20029;-69
2023/04/09 10:52:05;;;;;;;5.28;2.63;;;;;;;;;;5054352;28;20016;-69
2023/04/09 10:54:32;;;;;;;3.30;2.22;;;;;;;;;;5054044;28;20031;-69
2023/04/09 10:57:07;;;;;;;2.47;1.80;;;;;;;;;;5053982;28;20020;-67
2023/04/09 10:59:34;;;;;;;2.75;2.30;;;;;;;;;;5054294;28;20051;-67
2023/04/09 11:02:00;;;;;;;3.42;1.83;;;;;;;;;;5054137;28;20023;-67
2023/04/09 11:04:50;;;;;;;3.85;2.15;;;;;;;;;;5054260;28;20033;-67
2023/04/09 11:07:17;;;;;;;4.43;2.35;;;;;;;;;;5050706;28;20040;-67
2023/04/09 11:09:44;;;;;;;3.33;2.70;;;;;;;;;;5053792;28;20082;-67
2023/04/09 11:12:13;;;;;;;2.40;1.88;;;;;;;;;;5053567;28;20028;-67
2023/04/09 11:14:39;;;;;;;2.90;2.15;;;;;;;;;;5053349;28;20482;-67
2023/04/09 11:17:06;;;;;;;3.40;2.00;;;;;;;;;;5053457;28;20025;-67
2023/04/09 11:19:35;;;;;;;1.80;1.40;;;;;;;;;;5053605;28;20013;-67
2023/04/09 11:22:08;;;;;;;1.98;1.52;;;;;;;;;;5053908;28;20033;-67
2023/04/09 11:24:45;;;;;;;2.35;1.38;;;;;;;;;;5053874;28;20044;-67
2023/04/09 11:27:12;;;;;;;1.92;1.20;;;;;;;;;;5053372;28;20033;-67
2023/04/09 11:29:38;;;;;;;1.00;1.00;;;;;;;;;;5053360;28;20045;-67
2023/04/09 11:32:05;;;;;;;1.33;1.23;;;;;;;;;;5053547;28;20031;-67
2023/04/09 11:34:31;;;;;;;1.48;1.38;;;;;;;;;;5053408;28;20470;-67
2023/04/09 11:36:58;;;;;;;1.00;0.93;;;;;;;;;;5053308;28;20055;-67
2023/04/09 11:39:25;;;;;;;1.20;1.10;;;;;;;;;;5053325;28;20028;-66
2023/04/09 11:41:52;;;;;;;0.82;0.82;;;;;;;;;;5052815;28;20397;-67
2023/04/09 11:44:19;;;;;;;2.80;1.23;;;;;;;;;;5053189;28;20547;-67
2023/04/09 11:46:46;;;;;;;2.30;1.52;;;;;;;;;;5052047;28;20075;-67
2023/04/09 11:49:12;;;;;;;1.80;1.45;;;;;;;;;;5052824;28;20040;-67
2023/04/09 11:51:39;;;;;;;1.48;1.38;;;;;;;;;;5053158;28;20100;-67
2023/04/09 11:54:05;;;;;;;1.27;1.08;;;;;;;;;;5052715;28;20025;-67
2023/04/09 11:56:32;;;;;;;1.25;1.15;;;;;;;;;;5051637;28;20031;-67
2023/04/09 11:58:58;;;;;;;1.80;1.05;;;;;;;;;;5052489;28;20025;-67
2023/04/09 12:01:31;;;;;;;1.20;1.10;;;;;;;;;;5052921;28;20035;-67
2023/04/09 12:03:57;;;;;;;1.13;0.95;;;;;;;;;;5053166;28;20497;-66
2023/04/09 12:06:24;;;;;;;1.80;1.15;;;;;;;;;;5052972;28;20024;-67
2023/04/09 12:08:56;;;;;;;1.67;0.60;;;;;;;;;;5052434;28;20512;-66
2023/04/09 12:11:30;;;;;;;0.60;0.60;;;;;;;;;;5052790;28;20375;-67
2023/04/09 12:14:02;;;;;;;1.95;1.00;;;;;;;;;;5052544;28;20517;-66
2023/04/09 12:16:33;;;;;;;0.98;0.95;;;;;;;;;;5052259;28;20028;-67
2023/04/09 12:19:06;;;;;;;0.55;0.55;;;;;;;;;;5051268;28;20520;-67
2023/04/09 12:21:55;;;;;;;0.60;0.60;;;;;;;;;;5052914;28;20029;-67
2023/04/09 12:24:25;;;;;;;0.80;0.70;;;;;;;;;;5052608;28;20482;-67
2023/04/09 12:26:51;;;;;;;0.70;0.70;;;;;;;;;;5051360;28;20024;-67
2023/04/09 12:29:19;;;;;;;0.80;0.80;;;;;;;;;;5051951;28;20440;-67
2023/04/09 12:31:46;;;;;;;0.85;0.80;;;;;;;;;;5052232;28;20036;-67
2023/04/09 12:34:12;;;;;;;1.13;0.60;;;;;;;;;;5052548;28;20037;-67
2023/04/09 12:36:40;;;;;;;0.80;0.80;;;;;;;;;;5052236;28;20043;-66
2023/04/09 12:39:07;;;;;;;0.70;0.70;;;;;;;;;;5052145;28;20051;-67
2023/04/09 12:41:33;;;;;;;0.88;0.80;;;;;;;;;;5052210;28;20074;-67
2023/04/09 12:43:59;;;;;;;0.60;0.60;;;;;;;;;;5052097;28;20031;-67
2023/04/09 12:46:27;;;;;;;1.13;0.70;;;;;;;;;;5052245;28;20051;-67
2023/04/09 12:48:53;;;;;;;0.70;0.70;;;;;;;;;;5052446;28;20035;-67
2023/04/09 12:51:20;;;;;;;0.50;0.50;;;;;;;;;;5052380;28;20025;-67
2023/04/09 12:53:46;;;;;;;0.70;0.70;;;;;;;;;;5052497;28;20017;-67
2023/04/09 12:56:12;;;;;;;0.77;0.77;;;;;;;;;;5052436;28;20028;-67
2023/04/09 12:58:39;;;;;;;0.70;0.70;;;;;;;;;;5052090;28;20539;-67
2023/04/09 13:01:06;;;;;;;0.50;0.50;;;;;;;;;;5052049;28;20031;-67
2023/04/09 13:03:32;;;;;;;0.50;0.50;;;;;;;;;;5052106;28;20035;-67
2023/04/09 13:05:58;;;;;;;2.03;0.63;;;;;;;;;;5052409;28;20052;-67
2023/04/09 13:08:25;;;;;;;0.75;0.63;;;;;;;;;;5052057;28;20040;-67
2023/04/09 13:10:51;;;;;;;0.60;0.60;;;;;;;;;;5052357;28;20127;-67
2023/04/09 13:13:17;;;;;;;0.60;0.60;;;;;;;;;;5052595;28;20025;-67
2023/04/09 13:15:44;;;;;;;0.30;0.30;;;;;;;;;;5051612;28;20025;-67
2023/04/09 13:18:10;;;;;;;0.55;0.55;;;;;;;;;;5052319;28;20039;-66
2023/04/09 13:20:37;;;;;;;0.77;0.50;;;;;;;;;;5052264;28;20026;-67
2023/04/09 13:23:03;;;;;;;0.50;0.50;;;;;;;;;;5051886;28;20021;-67
2023/04/09 13:25:29;;;;;;;0.50;0.50;;;;;;;;;;5051594;28;20059;-67
2023/04/09 13:27:56;;;;;;;0.45;0.45;;;;;;;;;;5052063;28;20459;-67
2023/04/09 13:30:22;;;;;;;0.68;0.50;;;;;;;;;;5051947;28;20086;-67
2023/04/09 13:32:49;;;;;;;0.50;0.50;;;;;;;;;;5052034;28;20036;-67
2023/04/09 13:35:15;;;;;;;0.50;0.50;;;;;;;;;;5052090;28;20446;-67
2023/04/09 13:37:41;;;;;;;0.73;0.60;;;;;;;;;;5053006;28;20029;-67
2023/04/09 13:40:08;;;;;;;0.60;0.60;;;;;;;;;;5055480;28;20029;-67
2023/04/09 13:42:36;;;;;;;0.50;0.50;;;;;;;;;;5055331;28;20047;-67
2023/04/09 13:45:03;;;;;;;1.05;0.70;;;;;;;;;;5055347;28;20027;-67
2023/04/09 13:47:29;;;;;;;0.65;0.65;;;;;;;;;;5054795;28;20032;-67
2023/04/09 13:49:55;;;;;;;0.60;0.60;;;;;;;;;;5055557;28;20021;-67
2023/04/09 13:52:22;;;;;;;0.60;0.60;;;;;;;;;;5055103;28;20025;-67
2023/04/09 13:54:49;;;;;;;0.50;0.50;;;;;;;;;;5055440;28;20039;-67
2023/04/09 13:57:15;;;;;;;0.73;0.70;;;;;;;;;;5055386;28;20482;-67
2023/04/09 13:59:42;;;;;;;0.52;0.50;;;;;;;;;;5055110;28;20039;-67
2023/04/09 14:02:09;;;;;;;1.13;0.55;;;;;;;;;;5055477;28;20375;-67
2023/04/09 14:04:35;;;;;;;0.60;0.60;;;;;;;;;;5055192;28;20212;-67
2023/04/09 14:07:01;;;;;;;0.50;0.50;;;;;;;;;;5055226;28;20025;-67
2023/04/09 14:09:28;;;;;;;0.73;0.68;;;;;;;;;;5054686;28;20045;-67
2023/04/09 14:11:54;;;;;;;0.52;0.50;;;;;;;;;;5054707;28;20025;-67
2023/04/09 14:14:21;;;;;;;0.50;0.50;;;;;;;;;;5054923;28;20037;-66
2023/04/09 14:16:47;;;;;;;0.60;0.60;;;;;;;;;;5054869;28;20024;-67
2023/04/09 14:19:13;;;;;;;0.50;0.50;;;;;;;;;;5054460;28;20381;-67
2023/04/09 14:21:40;;;;;;;0.50;0.50;;;;;;;;;;5055096;28;20032;-67
2023/04/09 14:24:06;;;;;;;0.60;0.60;;;;;;;;;;5054513;28;20039;-67
2023/04/09 14:26:33;;;;;;;2.42;0.43;;;;;;;;;;5054370;28;20029;-67
2023/04/09 14:28:59;;;;;;;0.40;0.40;;;;;;;;;;5054758;28;20501;-67
2023/04/09 14:31:25;;;;;;;0.95;0.50;;;;;;;;;;5054634;28;20055;-67
2023/04/09 14:33:52;;;;;;;0.43;0.43;;;;;;;;;;5054790;28;20502;-67
2023/04/09 14:36:18;;;;;;;0.57;0.57;;;;;;;;;;5054847;28;20059;-67
2023/04/09 14:38:44;;;;;;;0.50;0.50;;;;;;;;;;5054120;28;20401;-67
2023/04/09 14:41:11;;;;;;;4.05;0.50;;;;;;;;;;5055288;28;20031;-67
2023/04/09 14:43:38;;;;;;;0.70;0.70;;;;;;;;;;5054551;28;20415;-67
2023/04/09 14:46:05;;;;;;;0.40;0.40;;;;;;;;;;5054165;28;20021;-67